Time;durP1;ratioP1;P1;durP2;ratioP2;P2;SDS_P1;SDS_P2;PMS_P1;PMS_P2;Temp;Humidity;BMP_temperature;BMP_pressure;BME280_temperature;BME280_humidity;BME280_pressure;Samples;Min_cycle;Max_cycle;Signal;HPM_P1;HPM_P2
2023/09/01 00:01:11;;;;;;;5.07;2.88;;;;;;;;;;4990999;28;20045;-77
2023/09/01 00:03:38;;;;;;;2.88;2.17;;;;;;;;;;5023420;28;20021;-76
2023/09/01 00:06:11;;;;;;;5.45;2.80;;;;;;;;;;5002559;28;20026;-77
2023/09/01 00:08:36;;;;;;;4.80;2.95;;;;;;;;;;5001335;28;20149;-77
2023/09/01 00:11:02;;;;;;;4.70;2.33;;;;;;;;;;5019276;28;20053;-78
2023/09/01 00:13:28;;;;;;;5.68;2.78;;;;;;;;;;5002040;28;20030;-77
2023/09/01 00:15:54;;;;;;;7.20;3.67;;;;;;;;;;5002389;28;20039;-76
2023/09/01 00:18:19;;;;;;;6.63;3.58;;;;;;;;;;5002074;28;20029;-77
2023/09/01 00:20:45;;;;;;;6.28;3.15;;;;;;;;;;5019147;28;20029;-77
2023/09/01 00:23:14;;;;;;;7.70;2.85;;;;;;;;;;5019579;28;20064;-76
2023/09/01 00:25:39;;;;;;;6.90;2.88;;;;;;;;;;5004467;28;20026;-76
2023/09/01 00:28:05;;;;;;;4.72;2.40;;;;;;;;;;5004807;28;20121;-76
2023/09/01 00:30:31;;;;;;;5.13;2.90;;;;;;;;;;5038202;28;20052;-76
2023/09/01 00:32:57;;;;;;;5.50;2.40;;;;;;;;;;5042291;28;20066;-77
2023/09/01 00:35:22;;;;;;;5.82;2.55;;;;;;;;;;5043224;28;20025;-77
2023/09/01 00:37:50;;;;;;;4.10;2.85;;;;;;;;;;5042849;28;20075;-77
2023/09/01 00:40:15;;;;;;;5.53;2.60;;;;;;;;;;5025539;28;20044;-76
2023/09/01 00:42:41;;;;;;;5.47;2.83;;;;;;;;;;5042228;28;20033;-76
2023/09/01 00:45:08;;;;;;;6.75;2.60;;;;;;;;;;5023937;28;20030;-75
2023/09/01 00:47:34;;;;;;;5.20;2.85;;;;;;;;;;5041126;28;20444;-77
2023/09/01 00:50:09;;;;;;;10.35;3.15;;;;;;;;;;5042027;28;20500;-77
2023/09/01 00:52:35;;;;;;;5.05;2.55;;;;;;;;;;5042938;28;20037;-77
2023/09/01 00:55:04;;;;;;;5.05;3.00;;;;;;;;;;5041853;28;20025;-77
2023/09/01 00:57:30;;;;;;;8.50;3.38;;;;;;;;;;5025180;28;20029;-76
2023/09/01 00:59:56;;;;;;;3.90;2.25;;;;;;;;;;5040764;28;20065;-77
2023/09/01 01:02:22;;;;;;;5.53;2.38;;;;;;;;;;5023873;28;20091;-78
2023/09/01 01:04:48;;;;;;;5.60;2.70;;;;;;;;;;5024142;28;20034;-75
2023/09/01 01:07:31;;;;;;;4.07;2.67;;;;;;;;;;5025108;28;20039;-77
2023/09/01 01:10:15;;;;;;;3.80;2.40;;;;;;;;;;5023899;28;20069;-77
2023/09/01 01:12:41;;;;;;;6.25;3.10;;;;;;;;;;5023678;28;20029;-77
2023/09/01 01:15:12;;;;;;;6.25;3.00;;;;;;;;;;5042809;28;20075;-77
2023/09/01 01:17:44;;;;;;;8.13;2.97;;;;;;;;;;5024581;28;20408;-76
2023/09/01 01:20:16;;;;;;;5.72;2.55;;;;;;;;;;5024178;28;20383;-77
2023/09/01 01:22:48;;;;;;;3.60;2.45;;;;;;;;;;5023268;28;20100;-76
2023/09/01 01:25:14;;;;;;;4.55;2.90;;;;;;;;;;5024243;28;20044;-76
2023/09/01 01:27:48;;;;;;;4.18;2.70;;;;;;;;;;5023722;28;20021;-78
2023/09/01 01:30:14;;;;;;;5.07;2.83;;;;;;;;;;5023787;28;20061;-77
2023/09/01 01:32:41;;;;;;;7.00;2.78;;;;;;;;;;5024300;28;20025;-76
2023/09/01 01:35:36;;;;;;;4.13;2.70;;;;;;;;;;5041915;28;20068;-77
2023/09/01 01:38:25;;;;;;;6.05;2.65;;;;;;;;;;5024195;28;20448;-78
2023/09/01 01:40:57;;;;;;;4.32;2.95;;;;;;;;;;5024743;28;20504;-77
2023/09/01 01:43:25;;;;;;;3.20;2.42;;;;;;;;;;5041395;28;20029;-76
2023/09/01 01:45:52;;;;;;;5.18;2.50;;;;;;;;;;5023588;28;20105;-76
2023/09/01 01:48:18;;;;;;;4.53;2.65;;;;;;;;;;5041191;28;20034;-75
2023/09/01 01:50:44;;;;;;;5.55;2.65;;;;;;;;;;5024101;28;20033;-76
2023/09/01 01:53:09;;;;;;;3.70;2.53;;;;;;;;;;5042511;28;20111;-75
2023/09/01 01:55:35;;;;;;;3.40;2.17;;;;;;;;;;5041739;28;20072;-77
2023/09/01 01:58:01;;;;;;;4.47;2.38;;;;;;;;;;5024559;28;20029;-77
2023/09/01 02:00:27;;;;;;;5.05;2.85;;;;;;;;;;5033806;28;20021;-77
2023/09/01 02:02:54;;;;;;;3.90;2.80;;;;;;;;;;5040938;28;20040;-76
2023/09/01 02:05:19;;;;;;;6.20;3.30;;;;;;;;;;5023865;28;20428;-77
2023/09/01 02:07:45;;;;;;;6.32;2.97;;;;;;;;;;5023994;28;20025;-78
2023/09/01 02:10:11;;;;;;;5.30;3.00;;;;;;;;;;5024548;28;20056;-77
2023/09/01 02:12:37;;;;;;;6.65;3.20;;;;;;;;;;5024513;28;20113;-76
2023/09/01 02:15:08;;;;;;;7.00;3.55;;;;;;;;;;5025394;28;20025;-77
2023/09/01 02:17:36;;;;;;;3.60;2.70;;;;;;;;;;5023682;28;20072;-77
2023/09/01 02:20:10;;;;;;;7.93;2.75;;;;;;;;;;5024472;28;20064;-76
2023/09/01 02:22:36;;;;;;;5.75;3.03;;;;;;;;;;5024869;28;20025;-77
2023/09/01 02:25:08;;;;;;;5.50;2.67;;;;;;;;;;5024430;28;20021;-77
2023/09/01 02:27:38;;;;;;;4.32;2.88;;;;;;;;;;5024456;28;20094;-77
2023/09/01 02:30:04;;;;;;;7.03;2.40;;;;;;;;;;5023988;28;20052;-76
2023/09/01 02:32:29;;;;;;;6.05;3.10;;;;;;;;;;5041855;28;20159;-77
2023/09/01 02:34:55;;;;;;;4.25;2.60;;;;;;;;;;5024291;28;20057;-77
2023/09/01 02:37:21;;;;;;;6.63;3.55;;;;;;;;;;5023184;28;20121;-76
2023/09/01 02:39:50;;;;;;;6.45;2.75;;;;;;;;;;5041765;28;20033;-77
2023/09/01 02:42:18;;;;;;;4.22;2.78;;;;;;;;;;5040385;28;20087;-76
2023/09/01 02:44:44;;;;;;;5.88;2.88;;;;;;;;;;5040246;28;20033;-76
2023/09/01 02:47:10;;;;;;;4.75;3.03;;;;;;;;;;5039744;28;20144;-77
2023/09/01 02:49:35;;;;;;;4.22;3.17;;;;;;;;;;5040701;28;20057;-76
2023/09/01 02:52:01;;;;;;;5.60;2.90;;;;;;;;;;5040753;28;20443;-76
2023/09/01 02:54:28;;;;;;;5.75;3.00;;;;;;;;;;5022614;28;20021;-76
2023/09/01 02:56:53;;;;;;;7.22;3.38;;;;;;;;;;5021363;28;20025;-77
2023/09/01 02:59:19;;;;;;;4.78;3.03;;;;;;;;;;5022808;28;20031;-77
2023/09/01 03:01:45;;;;;;;6.78;3.80;;;;;;;;;;5040108;28;20385;-77
2023/09/01 03:04:10;;;;;;;7.80;3.58;;;;;;;;;;5021954;28;20516;-76
2023/09/01 03:06:36;;;;;;;7.72;3.15;;;;;;;;;;5039511;28;20022;-76
2023/09/01 03:09:05;;;;;;;5.10;2.97;;;;;;;;;;5039499;28;20044;-77
2023/09/01 03:11:31;;;;;;;10.32;3.47;;;;;;;;;;5021440;28;20131;-76
2023/09/01 03:13:57;;;;;;;8.75;3.83;;;;;;;;;;5021834;28;20025;-76
2023/09/01 03:16:23;;;;;;;4.90;3.13;;;;;;;;;;5022013;28;20116;-77
2023/09/01 03:18:49;;;;;;;5.38;3.17;;;;;;;;;;5022089;28;20095;-77
2023/09/01 03:21:14;;;;;;;9.20;2.90;;;;;;;;;;5029531;28;20033;-77
2023/09/01 03:23:41;;;;;;;6.70;3.25;;;;;;;;;;5002259;28;20053;-77
2023/09/01 03:26:08;;;;;;;8.15;3.38;;;;;;;;;;5019220;28;20091;-77
2023/09/01 03:28:34;;;;;;;4.60;2.65;;;;;;;;;;5001278;28;20050;-76
2023/09/01 03:31:00;;;;;;;4.68;2.67;;;;;;;;;;5002532;28;20030;-76
2023/09/01 03:33:27;;;;;;;7.38;3.22;;;;;;;;;;5003281;28;20061;-77
2023/09/01 03:35:53;;;;;;;6.07;2.75;;;;;;;;;;5019336;28;20116;-77
2023/09/01 03:38:18;;;;;;;7.35;3.50;;;;;;;;;;5020637;28;20056;-78
2023/09/01 03:40:44;;;;;;;4.97;2.80;;;;;;;;;;5019268;28;20113;-76
2023/09/01 03:43:10;;;;;;;7.93;3.30;;;;;;;;;;5019504;28;20084;-75
2023/09/01 03:45:37;;;;;;;4.28;2.78;;;;;;;;;;5019132;28;20022;-76
2023/09/01 03:48:03;;;;;;;11.90;3.30;;;;;;;;;;5001933;28;20026;-77
2023/09/01 03:50:28;;;;;;;22.02;6.22;;;;;;;;;;5001130;28;20022;-77
2023/09/01 03:52:54;;;;;;;10.27;4.45;;;;;;;;;;5001797;28;20036;-77
2023/09/01 03:55:20;;;;;;;8.30;3.20;;;;;;;;;;5001925;28;20025;-77
2023/09/01 03:57:45;;;;;;;7.57;3.30;;;;;;;;;;5003966;28;20030;-77
2023/09/01 04:00:12;;;;;;;5.05;2.83;;;;;;;;;;5006450;28;20033;-77
2023/09/01 04:02:37;;;;;;;11.25;3.25;;;;;;;;;;5006668;28;20087;-77
2023/09/01 04:05:05;;;;;;;7.90;3.15;;;;;;;;;;5024020;28;20049;-77
2023/09/01 04:07:31;;;;;;;4.70;2.75;;;;;;;;;;5005978;28;20057;-76
2023/09/01 04:09:58;;;;;;;5.05;2.80;;;;;;;;;;5006693;28;20030;-76
2023/09/01 04:12:24;;;;;;;5.97;3.20;;;;;;;;;;5006204;28;20036;-77
2023/09/01 04:14:50;;;;;;;7.85;2.90;;;;;;;;;;5006760;28;20026;-78
2023/09/01 04:17:15;;;;;;;8.52;3.55;;;;;;;;;;5024910;28;20101;-77
2023/09/01 04:19:41;;;;;;;7.85;3.85;;;;;;;;;;5006989;28;20026;-78
2023/09/01 04:22:07;;;;;;;7.15;2.40;;;;;;;;;;5024831;28;20405;-77
2023/09/01 04:24:33;;;;;;;4.63;2.40;;;;;;;;;;5006900;28;20029;-77
2023/09/01 04:26:58;;;;;;;7.45;3.10;;;;;;;;;;5025004;28;20025;-77
2023/09/01 04:29:24;;;;;;;6.00;2.30;;;;;;;;;;5036390;28;20080;-77
2023/09/01 04:31:50;;;;;;;8.40;3.40;;;;;;;;;;5044590;28;20389;-77
2023/09/01 04:34:16;;;;;;;7.18;3.00;;;;;;;;;;5025501;28;20026;-76
2023/09/01 04:36:42;;;;;;;5.55;2.90;;;;;;;;;;5025232;28;20720;-77
2023/09/01 04:39:09;;;;;;;8.60;2.85;;;;;;;;;;5025637;28;20017;-76
2023/09/01 04:41:35;;;;;;;4.80;2.67;;;;;;;;;;5026091;28;20464;-78
2023/09/01 04:44:04;;;;;;;6.82;3.20;;;;;;;;;;5044146;28;20033;-77
2023/09/01 04:46:30;;;;;;;9.63;2.83;;;;;;;;;;5044358;28;20535;-76
2023/09/01 04:48:55;;;;;;;6.28;3.10;;;;;;;;;;5025858;28;20021;-77
2023/09/01 04:51:21;;;;;;;7.07;2.80;;;;;;;;;;5044146;28;20389;-77
2023/09/01 04:53:50;;;;;;;5.95;2.92;;;;;;;;;;5025922;28;20017;-76
2023/09/01 04:56:16;;;;;;;6.22;2.78;;;;;;;;;;5026629;28;20105;-76
2023/09/01 04:58:42;;;;;;;39.05;20.27;;;;;;;;;;5042936;28;20033;-76
2023/09/01 05:01:12;;;;;;;18.75;7.90;;;;;;;;;;5041779;28;20029;-77
2023/09/01 05:03:38;;;;;;;6.20;2.72;;;;;;;;;;5026682;28;20026;-78
2023/09/01 05:06:05;;;;;;;11.52;3.45;;;;;;;;;;5043237;28;20028;-78
2023/09/01 05:08:31;;;;;;;5.60;2.63;;;;;;;;;;5033020;28;20033;-78
2023/09/01 05:10:57;;;;;;;7.45;3.00;;;;;;;;;;5047780;28;20025;-76
2023/09/01 05:13:26;;;;;;;8.50;2.88;;;;;;;;;;5046500;28;20040;-75
2023/09/01 05:15:54;;;;;;;10.23;3.15;;;;;;;;;;5028194;28;20029;-76
2023/09/01 05:18:19;;;;;;;5.13;2.67;;;;;;;;;;5016151;28;20031;-77
2023/09/01 05:20:48;;;;;;;18.50;8.43;;;;;;;;;;5042547;28;20452;-78
2023/09/01 05:23:14;;;;;;;11.45;4.32;;;;;;;;;;5013935;28;20674;-77
2023/09/01 05:25:40;;;;;;;6.57;3.22;;;;;;;;;;5007377;28;20022;-78
2023/09/01 05:28:06;;;;;;;4.45;3.13;;;;;;;;;;5047629;28;20032;-83
2023/09/01 05:30:32;;;;;;;7.95;3.80;;;;;;;;;;5052335;28;20037;-83
2023/09/01 05:33:04;;;;;;;8.55;2.95;;;;;;;;;;5052164;28;20037;-82
2023/09/01 05:35:30;;;;;;;8.48;3.25;;;;;;;;;;5047571;28;20059;-78
2023/09/01 05:37:59;;;;;;;5.05;2.10;;;;;;;;;;5057966;28;20029;-78
2023/09/01 05:40:29;;;;;;;5.10;3.00;;;;;;;;;;5042096;28;20093;-76
2023/09/01 05:42:55;;;;;;;5.32;3.10;;;;;;;;;;5025492;28;20033;-76
2023/09/01 05:45:21;;;;;;;7.22;2.47;;;;;;;;;;5025375;28;20030;-78
2023/09/01 05:47:56;;;;;;;6.95;2.95;;;;;;;;;;5021287;28;20025;-77
2023/09/01 05:50:24;;;;;;;10.77;3.22;;;;;;;;;;5024550;28;20430;-76
2023/09/01 05:52:51;;;;;;;5.85;2.97;;;;;;;;;;5009868;28;20026;-77
2023/09/01 05:55:20;;;;;;;5.63;2.53;;;;;;;;;;5023719;28;20056;-78
2023/09/01 05:57:48;;;;;;;4.85;3.13;;;;;;;;;;5041350;28;20087;-78
2023/09/01 06:00:24;;;;;;;9.13;3.10;;;;;;;;;;5027613;28;20025;-82
2023/09/01 06:03:03;;;;;;;7.43;3.50;;;;;;;;;;5025178;28;20026;-82
2023/09/01 06:05:34;;;;;;;14.15;3.85;;;;;;;;;;5023767;28;20033;-78
2023/09/01 06:08:03;;;;;;;8.97;3.33;;;;;;;;;;5023817;28;20469;-78
2023/09/01 06:10:29;;;;;;;7.32;3.55;;;;;;;;;;5025446;28;20144;-79
2023/09/01 06:12:59;;;;;;;14.23;3.40;;;;;;;;;;5041630;28;20076;-78
2023/09/01 06:15:26;;;;;;;8.13;3.08;;;;;;;;;;5024876;28;20041;-77
2023/09/01 06:17:53;;;;;;;5.10;2.45;;;;;;;;;;5042800;28;20059;-78
2023/09/01 06:20:24;;;;;;;7.22;2.67;;;;;;;;;;5040623;28;20033;-78
2023/09/01 06:22:53;;;;;;;7.97;2.60;;;;;;;;;;5024258;28;20040;-80
2023/09/01 06:25:22;;;;;;;5.25;2.80;;;;;;;;;;5024678;28;20038;-77
2023/09/01 06:27:50;;;;;;;6.13;3.00;;;;;;;;;;5023867;28;20527;-78
2023/09/01 06:30:43;;;;;;;7.05;2.88;;;;;;;;;;5041792;28;20095;-77
2023/09/01 06:33:10;;;;;;;9.75;2.70;;;;;;;;;;5016351;28;20137;-77
2023/09/01 06:35:37;;;;;;;3.72;2.15;;;;;;;;;;5010965;28;20018;-78
2023/09/01 06:38:12;;;;;;;7.35;2.58;;;;;;;;;;5019927;28;20025;-80
2023/09/01 06:40:50;;;;;;;6.63;2.72;;;;;;;;;;5031767;28;20026;-79
2023/09/01 06:43:20;;;;;;;9.10;2.85;;;;;;;;;;5019062;28;20034;-81
2023/09/01 06:45:46;;;;;;;12.23;6.18;;;;;;;;;;5002064;28;20022;-85
2023/09/01 06:48:16;;;;;;;7.43;3.10;;;;;;;;;;5032305;28;20036;-83
2023/09/01 06:50:51;;;;;;;8.82;2.67;;;;;;;;;;5036303;28;20029;-82
2023/09/01 06:53:19;;;;;;;9.82;3.22;;;;;;;;;;5043943;28;20044;-82
2023/09/01 06:55:47;;;;;;;8.77;2.95;;;;;;;;;;5041255;28;20030;-81
2023/09/01 06:58:14;;;;;;;6.95;2.60;;;;;;;;;;5022738;28;20541;-86
2023/09/01 07:00:40;;;;;;;8.02;2.60;;;;;;;;;;5031073;28;20055;-82
2023/09/01 07:03:10;;;;;;;7.18;3.60;;;;;;;;;;5010853;28;20517;-85
2023/09/01 07:05:36;;;;;;;8.02;2.88;;;;;;;;;;5011612;28;20022;-85
2023/09/01 07:08:02;;;;;;;7.32;3.80;;;;;;;;;;5034994;28;20097;-85
2023/09/01 07:10:27;;;;;;;10.25;3.50;;;;;;;;;;5015770;28;20116;-87
2023/09/01 07:12:53;;;;;;;4.22;2.70;;;;;;;;;;5032604;28;20048;-84
2023/09/01 07:15:19;;;;;;;4.13;2.28;;;;;;;;;;5017216;28;20052;-84
2023/09/01 07:17:44;;;;;;;6.70;2.92;;;;;;;;;;5028645;28;20034;-82
2023/09/01 07:20:11;;;;;;;17.23;2.80;;;;;;;;;;5027102;28;20061;-82
2023/09/01 07:22:37;;;;;;;5.53;2.10;;;;;;;;;;5031419;28;20104;-84
2023/09/01 07:25:04;;;;;;;5.35;2.22;;;;;;;;;;5037302;28;20145;-81
2023/09/01 07:27:30;;;;;;;6.35;2.53;;;;;;;;;;5017023;28;20028;-85
2023/09/01 07:29:55;;;;;;;6.57;3.10;;;;;;;;;;5016041;28;20054;-87
2023/09/01 07:32:21;;;;;;;6.40;2.63;;;;;;;;;;5009210;28;20168;-82
2023/09/01 07:34:47;;;;;;;6.78;2.53;;;;;;;;;;5014407;28;20029;-86
2023/09/01 07:37:13;;;;;;;8.25;2.97;;;;;;;;;;5014920;28;20025;-85
2023/09/01 07:39:39;;;;;;;6.95;2.60;;;;;;;;;;5001425;28;20041;-84
2023/09/01 07:42:05;;;;;;;11.70;2.95;;;;;;;;;;5022145;28;20025;-87
2023/09/01 07:44:31;;;;;;;6.25;2.47;;;;;;;;;;4997370;28;20448;-87
2023/09/01 07:46:57;;;;;;;3.35;2.00;;;;;;;;;;5018379;28;20025;-87
2023/09/01 07:49:23;;;;;;;4.03;2.53;;;;;;;;;;4975054;28;20413;-81
2023/09/01 07:55:14;;;;;;;5.40;2.08;;;;;;;;;;4997317;28;20449;-82
2023/09/01 07:57:40;;;;;;;7.97;2.78;;;;;;;;;;5015730;28;20076;-85
2023/09/01 08:00:07;;;;;;;9.52;3.05;;;;;;;;;;4992722;28;20065;-87
2023/09/01 08:02:34;;;;;;;5.63;2.33;;;;;;;;;;4997179;28;20267;-86
2023/09/01 08:05:03;;;;;;;5.45;2.50;;;;;;;;;;4991111;28;20419;-87
2023/09/01 08:07:30;;;;;;;9.85;4.90;;;;;;;;;;5017124;28;20032;-85
2023/09/01 08:09:56;;;;;;;7.25;2.60;;;;;;;;;;5003979;28;20026;-87
2023/09/01 08:12:21;;;;;;;4.60;2.30;;;;;;;;;;5023826;28;20049;-86
2023/09/01 08:14:46;;;;;;;6.50;2.35;;;;;;;;;;5000187;28;20021;-80
2023/09/01 08:17:12;;;;;;;4.03;2.17;;;;;;;;;;4993301;28;20100;-84
2023/09/01 08:19:40;;;;;;;3.55;2.08;;;;;;;;;;5008175;28;20566;-84
2023/09/01 08:22:06;;;;;;;6.90;2.45;;;;;;;;;;5021274;28;20112;-85
2023/09/01 08:24:31;;;;;;;4.85;2.20;;;;;;;;;;5018747;28;20018;-87
2023/09/01 08:27:01;;;;;;;5.45;2.83;;;;;;;;;;5001621;28;20040;-86
2023/09/01 08:29:30;;;;;;;5.82;2.50;;;;;;;;;;5010696;28;20155;-90
2023/09/01 08:31:55;;;;;;;5.65;2.53;;;;;;;;;;5036771;28;20029;-84
2023/09/01 08:34:21;;;;;;;6.78;3.38;;;;;;;;;;5022836;28;20041;-88
2023/09/01 08:36:48;;;;;;;6.05;2.67;;;;;;;;;;5034066;28;20048;-85
2023/09/01 08:39:15;;;;;;;6.85;2.40;;;;;;;;;;5014858;28;20030;-81
2023/09/01 08:41:41;;;;;;;7.85;3.17;;;;;;;;;;5014867;28;20394;-83
2023/09/01 08:44:10;;;;;;;5.05;2.50;;;;;;;;;;5006545;28;20030;-80
2023/09/01 08:46:37;;;;;;;4.60;3.17;;;;;;;;;;5031026;28;20056;-81
2023/09/01 08:49:04;;;;;;;5.78;2.60;;;;;;;;;;5012526;28;20026;-86
2023/09/01 08:51:31;;;;;;;5.03;2.63;;;;;;;;;;5012917;28;20033;-78
2023/09/01 08:53:57;;;;;;;25.92;5.30;;;;;;;;;;5006557;28;20021;-82
2023/09/01 08:56:23;;;;;;;4.85;2.70;;;;;;;;;;5004685;28;20505;-85
2023/09/01 08:58:49;;;;;;;8.52;3.05;;;;;;;;;;5025668;28;20437;-85
2023/09/01 09:01:16;;;;;;;10.85;2.90;;;;;;;;;;5012473;28;20025;-84
2023/09/01 09:03:42;;;;;;;9.30;3.47;;;;;;;;;;4992587;28;20044;-82
2023/09/01 09:06:12;;;;;;;6.32;2.80;;;;;;;;;;5015198;28;20026;-81
2023/09/01 09:08:38;;;;;;;6.72;3.17;;;;;;;;;;5026529;28;20342;-85
2023/09/01 09:11:15;;;;;;;4.82;2.22;;;;;;;;;;5039430;28;20539;-83
2023/09/01 09:13:41;;;;;;;7.35;2.88;;;;;;;;;;5020739;28;20052;-85
2023/09/01 09:16:15;;;;;;;6.15;2.60;;;;;;;;;;5015806;28;20113;-85
2023/09/01 09:18:45;;;;;;;12.65;3.25;;;;;;;;;;5016699;28;20025;-85
2023/09/01 09:21:27;;;;;;;3.95;2.25;;;;;;;;;;5031496;28;20029;-83
2023/09/01 09:23:55;;;;;;;4.90;2.85;;;;;;;;;;5017415;28;20091;-86
2023/09/01 09:26:26;;;;;;;5.80;3.08;;;;;;;;;;5036403;28;20020;-79
2023/09/01 09:28:51;;;;;;;5.18;2.53;;;;;;;;;;5036479;28;20056;-87
2023/09/01 09:31:17;;;;;;;2.38;1.95;;;;;;;;;;5017939;28;20097;-82
2023/09/01 09:33:43;;;;;;;4.90;2.63;;;;;;;;;;5017105;28;20021;-81
2023/09/01 09:36:08;;;;;;;4.40;2.55;;;;;;;;;;5027995;28;20022;-83
2023/09/01 09:38:46;;;;;;;6.53;2.50;;;;;;;;;;5027179;28;20045;-85
2023/09/01 09:41:13;;;;;;;3.65;2.00;;;;;;;;;;5032088;28;20025;-82
2023/09/01 09:43:48;;;;;;;11.90;4.03;;;;;;;;;;5030743;28;20103;-81
2023/09/01 09:46:16;;;;;;;4.65;2.13;;;;;;;;;;5025414;28;20049;-86
2023/09/01 09:48:42;;;;;;;6.57;2.20;;;;;;;;;;5027537;28;20028;-84
2023/09/01 09:51:10;;;;;;;6.53;2.72;;;;;;;;;;5041961;28;20032;-82
2023/09/01 09:53:36;;;;;;;4.78;2.30;;;;;;;;;;5020962;28;20056;-90
2023/09/01 09:56:33;;;;;;;4.50;2.15;;;;;;;;;;5021166;28;20040;-86
2023/09/01 09:59:04;;;;;;;4.95;2.58;;;;;;;;;;5022847;28;20276;-85
2023/09/01 10:01:37;;;;;;;6.50;2.65;;;;;;;;;;5037314;28;20063;-87
2023/09/01 10:04:07;;;;;;;8.75;2.58;;;;;;;;;;5030548;28;20033;-83
2023/09/01 10:06:35;;;;;;;5.40;2.50;;;;;;;;;;5002812;28;20643;-87
2023/09/01 10:09:05;;;;;;;7.63;2.63;;;;;;;;;;5013280;28;20033;-84
2023/09/01 10:11:31;;;;;;;3.40;2.55;;;;;;;;;;5027246;28;20025;-87
2023/09/01 10:13:57;;;;;;;4.57;2.65;;;;;;;;;;5022894;28;20026;-85
2023/09/01 10:16:23;;;;;;;4.80;2.75;;;;;;;;;;5015790;28;20044;-80
2023/09/01 10:18:50;;;;;;;3.67;2.40;;;;;;;;;;5036231;28;20053;-79
2023/09/01 10:21:16;;;;;;;5.55;2.63;;;;;;;;;;5011235;28;20033;-80
2023/09/01 10:23:43;;;;;;;3.53;2.53;;;;;;;;;;5025259;28;20063;-81
2023/09/01 10:26:17;;;;;;;3.85;2.42;;;;;;;;;;5014817;28;20029;-81
2023/09/01 10:28:56;;;;;;;8.23;3.08;;;;;;;;;;5024922;28;20100;-83
2023/09/01 10:31:23;;;;;;;4.18;2.38;;;;;;;;;;5024893;28;20052;-83
2023/09/01 10:34:04;;;;;;;2.80;2.40;;;;;;;;;;5033656;28;20076;-86
2023/09/01 10:36:30;;;;;;;;;;;;;;;;;;5040475;28;20063;-85
2023/09/01 10:39:06;;;;;;;5.28;2.13;;;;;;;;;;5017596;28;19948;-89
2023/09/01 10:42:07;;;;;;;3.95;2.50;;;;;;;;;;5033382;28;20045;-86
2023/09/01 10:44:44;;;;;;;6.03;2.55;;;;;;;;;;4982763;28;20045;-86
2023/09/01 10:47:31;;;;;;;5.95;2.97;;;;;;;;;;5034949;28;20029;-85
2023/09/01 10:50:02;;;;;;;4.78;2.58;;;;;;;;;;5020881;28;20022;-88
2023/09/01 10:52:28;;;;;;;3.15;2.20;;;;;;;;;;5033018;28;20014;-85
2023/09/01 10:55:00;;;;;;;5.18;2.70;;;;;;;;;;5036945;28;20073;-85
2023/09/01 10:57:46;;;;;;;3.78;2.25;;;;;;;;;;5023982;28;20036;-87
2023/09/01 11:00:28;;;;;;;6.10;2.83;;;;;;;;;;5033887;28;20064;-86
2023/09/01 11:03:29;;;;;;;4.40;2.97;;;;;;;;;;5025720;28;20029;-86
2023/09/01 11:05:59;;;;;;;4.82;2.10;;;;;;;;;;5022807;28;20183;-85
2023/09/01 11:08:30;;;;;;;4.10;2.10;;;;;;;;;;5008851;28;20025;-87
2023/09/01 11:11:05;;;;;;;5.43;2.35;;;;;;;;;;5032840;28;20025;-86
2023/09/01 11:13:31;;;;;;;5.60;2.10;;;;;;;;;;5004714;28;20128;-83
2023/09/01 11:15:57;;;;;;;6.85;2.75;;;;;;;;;;5026105;28;20040;-86
2023/09/01 11:18:24;;;;;;;2.63;1.90;;;;;;;;;;5011265;28;20081;-82
2023/09/01 11:20:54;;;;;;;3.72;2.30;;;;;;;;;;5015812;28;20025;-83
2023/09/01 11:23:21;;;;;;;3.78;1.70;;;;;;;;;;5000069;28;20037;-83
2023/09/01 11:26:03;;;;;;;4.07;2.03;;;;;;;;;;5004145;28;20128;-82
2023/09/01 11:28:29;;;;;;;5.22;1.95;;;;;;;;;;4998236;28;20042;-83
2023/09/01 11:30:57;;;;;;;3.85;2.10;;;;;;;;;;4994359;28;20077;-88
2023/09/01 11:33:24;;;;;;;6.90;2.25;;;;;;;;;;5014824;28;20104;-83
2023/09/01 11:36:02;;;;;;;2.20;1.58;;;;;;;;;;4993744;28;20509;-85
2023/09/01 11:38:27;;;;;;;4.85;1.95;;;;;;;;;;5008144;28;20033;-86
2023/09/01 11:40:53;;;;;;;3.80;1.90;;;;;;;;;;5002539;28;20120;-86
2023/09/01 11:43:19;;;;;;;5.30;1.70;;;;;;;;;;4997160;28;20029;-87
2023/09/01 11:45:46;;;;;;;3.90;1.55;;;;;;;;;;4991608;28;20026;-83
2023/09/01 11:48:12;;;;;;;5.43;2.42;;;;;;;;;;4993210;28;20117;-86
2023/09/01 11:50:43;;;;;;;4.35;1.70;;;;;;;;;;5012293;28;20478;-83
2023/09/01 11:53:20;;;;;;;;;;;;;;;;;;4996888;28;20121;-91
2023/09/01 11:55:47;;;;;;;4.10;2.30;;;;;;;;;;5015600;28;19940;-85
2023/09/01 11:58:12;;;;;;;6.25;2.50;;;;;;;;;;5007491;28;20049;-84
2023/09/01 12:00:39;;;;;;;3.58;2.05;;;;;;;;;;4997808;28;20030;-83
2023/09/01 12:03:05;;;;;;;4.00;1.85;;;;;;;;;;5014721;28;20449;-84
2023/09/01 12:05:33;;;;;;;7.53;3.13;;;;;;;;;;4998909;28;20050;-85
2023/09/01 12:08:03;;;;;;;4.75;2.08;;;;;;;;;;4996387;28;20022;-85
2023/09/01 12:10:29;;;;;;;3.55;1.90;;;;;;;;;;5010642;28;20022;-85
2023/09/01 12:13:23;;;;;;;5.45;1.90;;;;;;;;;;4997220;28;20042;-91
2023/09/01 12:16:01;;;;;;;3.40;1.45;;;;;;;;;;4987853;28;20041;-84
2023/09/01 12:18:35;;;;;;;2.78;1.95;;;;;;;;;;4997173;28;20033;-87
2023/09/01 12:21:07;;;;;;;4.47;2.08;;;;;;;;;;5017019;28;20030;-88
2023/09/01 12:23:48;;;;;;;3.50;2.20;;;;;;;;;;5021838;28;20045;-84
2023/09/01 12:26:15;;;;;;;5.30;2.13;;;;;;;;;;4992326;28;20068;-89
2023/09/01 12:28:42;;;;;;;2.72;2.10;;;;;;;;;;5023660;28;20287;-83
2023/09/01 12:31:10;;;;;;;4.35;1.60;;;;;;;;;;5012064;28;20106;-87
2023/09/01 12:33:36;;;;;;;4.18;2.00;;;;;;;;;;5035621;28;20026;-89
2023/09/01 12:36:04;;;;;;;4.13;2.25;;;;;;;;;;5021557;28;20482;-88
2023/09/01 12:38:29;;;;;;;2.92;1.60;;;;;;;;;;5020340;28;20362;-86
2023/09/01 12:41:07;;;;;;;2.75;1.45;;;;;;;;;;5020265;28;20063;-88
2023/09/01 12:43:34;;;;;;;4.90;1.50;;;;;;;;;;5017822;28;20080;-88
2023/09/01 12:46:06;;;;;;;6.85;1.70;;;;;;;;;;5024520;28;20037;-90
2023/09/01 12:48:32;;;;;;;8.73;3.30;;;;;;;;;;5018147;28;20610;-88
2023/09/01 12:50:58;;;;;;;3.15;1.48;;;;;;;;;;5015406;28;20068;-87
2023/09/01 12:53:24;;;;;;;2.30;1.40;;;;;;;;;;5042943;28;20018;-86
2023/09/01 12:55:50;;;;;;;3.15;1.75;;;;;;;;;;5046922;28;20545;-81
2023/09/01 12:58:16;;;;;;;1.33;1.23;;;;;;;;;;5023232;28;20021;-85
2023/09/01 13:00:43;;;;;;;3.55;1.65;;;;;;;;;;5037539;28;20048;-83
2023/09/01 13:03:09;;;;;;;5.90;1.75;;;;;;;;;;5014995;28;20029;-83
2023/09/01 13:05:34;;;;;;;3.15;1.30;;;;;;;;;;5026821;28;20195;-83
2023/09/01 13:08:02;;;;;;;1.70;1.52;;;;;;;;;;5020340;28;20022;-80
2023/09/01 13:10:29;;;;;;;1.67;1.23;;;;;;;;;;5033468;28;20021;-81
2023/09/01 13:12:55;;;;;;;2.38;1.20;;;;;;;;;;5006506;28;20033;-84
2023/09/01 13:15:21;;;;;;;2.05;1.10;;;;;;;;;;5024403;28;20440;-83
2023/09/01 13:17:47;;;;;;;1.83;1.10;;;;;;;;;;5019257;28;20499;-83
2023/09/01 13:20:13;;;;;;;2.65;1.10;;;;;;;;;;5014919;28;20116;-81
2023/09/01 13:22:44;;;;;;;0.90;0.90;;;;;;;;;;5048230;28;20033;-85
2023/09/01 13:25:10;;;;;;;;;;;;;;;;;;5020028;28;20060;-85
2023/09/01 13:27:36;;;;;;;2.22;1.00;;;;;;;;;;5018058;28;20016;-81
2023/09/01 13:30:05;;;;;;;0.77;0.77;;;;;;;;;;5025054;28;20142;-88
2023/09/01 13:32:31;;;;;;;1.42;0.90;;;;;;;;;;5014975;28;20021;-86
2023/09/01 13:34:57;;;;;;;1.08;0.88;;;;;;;;;;5023331;28;20029;-84
2023/09/01 13:37:25;;;;;;;0.77;0.75;;;;;;;;;;5010889;28;20466;-88
2023/09/01 13:39:55;;;;;;;0.88;0.70;;;;;;;;;;5007538;28;20036;-88
2023/09/01 13:42:24;;;;;;;1.27;1.02;;;;;;;;;;5019518;28;20025;-86
2023/09/01 13:44:59;;;;;;;1.00;0.85;;;;;;;;;;5039832;28;20093;-86
2023/09/01 13:47:58;;;;;;;1.45;0.70;;;;;;;;;;5025323;28;20025;-90
2023/09/01 13:50:24;;;;;;;3.00;0.75;;;;;;;;;;5035611;28;20071;-85
2023/09/01 13:53:01;;;;;;;;;;;;;;;;;;;;;
2023/09/01 13:55:37;;;;;;;1.88;1.33;;;;;;;;;;5037022;28;20460;-85
2023/09/01 13:58:04;;;;;;;2.55;1.00;;;;;;;;;;5040778;28;20657;-86
2023/09/01 14:00:32;;;;;;;1.42;1.23;;;;;;;;;;5040328;28;20083;-89
2023/09/01 14:02:57;;;;;;;2.45;1.10;;;;;;;;;;5018679;28;20013;-85
2023/09/01 14:05:32;;;;;;;3.72;1.27;;;;;;;;;;5037773;28;20033;-90
2023/09/01 14:07:57;;;;;;;2.47;1.50;;;;;;;;;;5022172;28;20025;-89
2023/09/01 14:10:29;;;;;;;2.88;1.65;;;;;;;;;;5038611;28;20403;-87
2023/09/01 14:12:59;;;;;;;1.63;1.30;;;;;;;;;;5021049;28;20061;-86
2023/09/01 14:15:27;;;;;;;2.75;1.20;;;;;;;;;;5023168;28;20021;-89
2023/09/01 14:17:53;;;;;;;2.40;1.30;;;;;;;;;;5029039;28;20061;-89
2023/09/01 14:20:19;;;;;;;2.03;1.83;;;;;;;;;;5026769;28;20037;-88
2023/09/01 14:23:00;;;;;;;4.63;1.20;;;;;;;;;;5043245;28;20056;-86
2023/09/01 14:25:25;;;;;;;4.72;1.35;;;;;;;;;;5021569;28;20178;-85
2023/09/01 14:27:53;;;;;;;3.85;1.00;;;;;;;;;;5058766;28;20112;-84
2023/09/01 14:30:19;;;;;;;10.60;1.80;;;;;;;;;;5023429;28;20037;-86
2023/09/01 14:32:45;;;;;;;3.13;1.15;;;;;;;;;;5047885;28;20021;-85
2023/09/01 14:35:11;;;;;;;2.55;0.82;;;;;;;;;;5052161;28;20025;-90
2023/09/01 14:37:36;;;;;;;0.98;0.80;;;;;;;;;;5021180;28;20377;-88
2023/09/01 14:40:03;;;;;;;3.75;1.00;;;;;;;;;;5016389;28;20472;-85
2023/09/01 14:42:33;;;;;;;4.80;4.22;;;;;;;;;;5020671;28;20013;-90
2023/09/01 14:44:59;;;;;;;1.40;1.30;;;;;;;;;;5024076;28;20033;-85
2023/09/01 14:47:28;;;;;;;3.35;1.02;;;;;;;;;;5028882;28;20038;-85
2023/09/01 14:49:55;;;;;;;2.00;0.98;;;;;;;;;;5017153;28;20091;-87
2023/09/01 14:52:21;;;;;;;1.13;1.13;;;;;;;;;;5006055;28;20033;-88
2023/09/01 14:54:54;;;;;;;1.15;1.05;;;;;;;;;;5054168;28;20082;-87